createdAt,value
2023-02-02T00:01:40.377Z,2.05
2023-02-02T00:04:07.732Z,1.65
2023-02-02T00:06:34.689Z,1.73
2023-02-02T00:09:02.823Z,1.90
2023-02-02T00:11:29.535Z,1.73
2023-02-02T00:13:56.387Z,1.60
2023-02-02T00:16:29.073Z,1.42
2023-02-02T00:19:04.450Z,1.90
2023-02-02T00:21:31.193Z,1.83
2023-02-02T00:23:58.279Z,1.50
2023-02-02T00:26:26.006Z,1.70
2023-02-02T00:28:52.936Z,1.42
2023-02-02T00:31:19.797Z,1.50
2023-02-02T00:33:48.121Z,1.40
2023-02-02T00:36:15.171Z,1.05
2023-02-02T00:38:42.019Z,1.30
2023-02-02T00:41:08.703Z,1.55
2023-02-02T00:43:35.636Z,1.80
2023-02-02T00:46:02.432Z,1.52
2023-02-02T00:48:29.627Z,1.20
2023-02-02T00:50:56.332Z,1.33
2023-02-02T00:53:23.545Z,1.92
2023-02-02T00:55:50.297Z,2.10
2023-02-02T00:58:16.977Z,2.05
2023-02-02T01:00:43.816Z,1.88
2023-02-02T01:03:10.584Z,2.10
2023-02-02T01:05:37.273Z,1.80
2023-02-02T01:08:04.182Z,1.90
2023-02-02T01:10:31.081Z,2.25
2023-02-02T01:12:57.749Z,2.00
2023-02-02T01:15:25.144Z,1.90
2023-02-02T01:17:52.000Z,1.98
2023-02-02T01:20:20.392Z,2.28
2023-02-02T01:22:47.434Z,1.92
2023-02-02T01:25:14.320Z,1.80
2023-02-02T01:27:42.400Z,2.00
2023-02-02T01:30:10.602Z,2.50
2023-02-02T01:32:37.270Z,2.47
2023-02-02T01:35:04.101Z,2.17
2023-02-02T01:37:30.804Z,2.25
2023-02-02T01:39:57.451Z,2.47
2023-02-02T01:42:24.217Z,2.30
2023-02-02T01:45:03.614Z,2.17
2023-02-02T01:47:34.683Z,2.20
2023-02-02T01:50:01.664Z,1.98
2023-02-02T01:52:31.783Z,2.10
2023-02-02T01:55:04.407Z,2.40
2023-02-02T01:57:38.413Z,1.85
2023-02-02T02:00:11.532Z,2.00
2023-02-02T02:02:44.616Z,2.28
2023-02-02T02:05:15.839Z,1.90
2023-02-02T02:07:45.407Z,1.80
2023-02-02T02:12:39.935Z,2.10
2023-02-02T02:15:26.195Z,2.28
2023-02-02T02:18:22.420Z,2.20
2023-02-02T02:21:45.294Z,2.03
2023-02-02T02:25:08.474Z,2.20
2023-02-02T02:28:13.001Z,1.85
2023-02-02T02:30:57.831Z,1.90
2023-02-02T02:33:48.261Z,2.45
2023-02-02T02:36:33.457Z,3.50
2023-02-02T02:39:32.559Z,2.50
2023-02-02T02:42:06.177Z,2.10
2023-02-02T02:44:33.823Z,2.20
2023-02-02T02:47:00.975Z,2.33
2023-02-02T02:49:27.909Z,2.00
2023-02-02T02:51:56.239Z,2.00
2023-02-02T02:54:35.566Z,2.30
2023-02-02T02:57:32.962Z,2.25
2023-02-02T03:00:18.024Z,2.65
2023-02-02T03:02:50.598Z,2.85
2023-02-02T03:05:40.514Z,2.15
2023-02-02T03:08:32.572Z,2.10
2023-02-02T03:11:02.253Z,2.40
2023-02-02T03:13:30.597Z,2.50
2023-02-02T03:15:57.417Z,2.97
2023-02-02T03:18:28.383Z,4.15
2023-02-02T03:20:55.403Z,4.47
2023-02-02T03:23:22.207Z,6.80
2023-02-02T03:25:48.851Z,5.43
2023-02-02T03:28:17.270Z,5.63
2023-02-02T03:30:45.852Z,4.70
2023-02-02T03:33:13.966Z,5.05
2023-02-02T03:35:40.832Z,4.88
2023-02-02T03:38:07.891Z,3.75
2023-02-02T03:40:34.804Z,3.85
2023-02-02T03:43:01.752Z,4.97
2023-02-02T03:45:29.078Z,5.97
2023-02-02T03:47:55.685Z,6.43
2023-02-02T03:50:22.411Z,5.68
2023-02-02T03:52:49.090Z,5.10
2023-02-02T03:55:16.010Z,6.13
2023-02-02T03:57:42.756Z,6.53
2023-02-02T04:00:10.325Z,6.55
2023-02-02T04:02:40.295Z,7.03
2023-02-02T04:05:07.256Z,6.05
2023-02-02T04:07:34.007Z,7.97
2023-02-02T04:10:00.678Z,8.65
2023-02-02T04:12:27.465Z,9.00
2023-02-02T04:14:54.129Z,5.88
2023-02-02T04:17:20.783Z,9.32
2023-02-02T04:19:47.510Z,5.93
2023-02-02T04:22:14.117Z,4.88
2023-02-02T04:24:40.788Z,3.80
2023-02-02T04:27:07.621Z,4.50
2023-02-02T04:29:34.298Z,4.63
2023-02-02T04:32:00.971Z,3.80
2023-02-02T04:34:28.163Z,2.95
2023-02-02T04:36:56.000Z,4.82
2023-02-02T04:39:22.763Z,5.25
2023-02-02T04:41:49.428Z,6.80
2023-02-02T04:44:16.888Z,6.00
2023-02-02T04:46:44.530Z,6.40
2023-02-02T04:49:12.337Z,4.70
2023-02-02T04:51:39.965Z,5.50
2023-02-02T04:54:07.375Z,6.10
2023-02-02T04:56:34.624Z,4.43
2023-02-02T04:59:01.394Z,3.90
2023-02-02T05:01:29.490Z,3.70
2023-02-02T05:03:56.516Z,3.70
2023-02-02T05:06:23.253Z,3.45
2023-02-02T05:08:50.144Z,4.70
2023-02-02T05:11:19.372Z,5.47
2023-02-02T05:13:48.288Z,8.93
2023-02-02T05:16:15.656Z,9.40
2023-02-02T05:18:43.279Z,8.07
2023-02-02T05:21:10.056Z,6.30
2023-02-02T05:23:36.865Z,5.40
2023-02-02T05:26:04.261Z,5.80
2023-02-02T05:28:31.526Z,5.50
2023-02-02T05:30:58.279Z,6.13
2023-02-02T05:33:25.097Z,6.30
2023-02-02T05:35:52.852Z,6.25
2023-02-02T05:38:19.623Z,5.82
2023-02-02T05:40:49.045Z,4.90
2023-02-02T05:43:15.953Z,4.80
2023-02-02T05:45:42.665Z,5.10
2023-02-02T05:48:16.301Z,5.32
2023-02-02T05:50:47.098Z,4.45
2023-02-02T05:53:14.405Z,4.47
2023-02-02T05:55:41.119Z,4.38
2023-02-02T05:58:07.898Z,4.35
2023-02-02T06:00:34.678Z,4.80
2023-02-02T06:03:01.824Z,4.45
2023-02-02T06:05:28.571Z,3.90
2023-02-02T06:07:55.291Z,4.15
2023-02-02T06:10:22.181Z,3.60
2023-02-02T06:12:48.943Z,3.97
2023-02-02T06:15:15.737Z,3.80
2023-02-02T06:17:42.565Z,5.28
2023-02-02T06:20:09.871Z,4.90
2023-02-02T06:22:38.159Z,4.68
2023-02-02T06:25:05.619Z,6.28
2023-02-02T06:27:32.354Z,6.60
2023-02-02T06:29:59.180Z,4.20
2023-02-02T06:32:28.327Z,5.20
2023-02-02T06:34:55.016Z,5.40
2023-02-02T06:37:21.835Z,4.30
2023-02-02T06:39:48.488Z,5.38
2023-02-02T06:42:21.102Z,5.95
2023-02-02T06:44:48.962Z,7.28
2023-02-02T06:47:15.786Z,6.47
2023-02-02T06:49:42.464Z,6.47
2023-02-02T06:52:09.204Z,7.10
2023-02-02T06:54:35.845Z,7.03
2023-02-02T06:57:02.633Z,6.63
2023-02-02T06:59:29.366Z,8.73
2023-02-02T07:01:56.167Z,7.70
2023-02-02T07:04:23.175Z,7.88
2023-02-02T07:06:49.915Z,6.75
2023-02-02T07:09:17.764Z,6.90
2023-02-02T07:11:45.408Z,8.75
2023-02-02T07:14:13.504Z,4.90
2023-02-02T07:16:40.267Z,5.22
2023-02-02T07:19:06.990Z,4.93
2023-02-02T07:21:36.359Z,5.22
2023-02-02T07:24:04.774Z,4.43
2023-02-02T07:26:31.783Z,7.47
2023-02-02T07:28:58.624Z,3.88
2023-02-02T07:31:26.648Z,7.10
2023-02-02T07:33:54.441Z,4.70
2023-02-02T07:36:24.027Z,5.75
2023-02-02T07:38:57.702Z,6.57
2023-02-02T07:41:30.811Z,7.35
2023-02-02T07:43:57.814Z,7.55
2023-02-02T07:46:24.570Z,5.53
2023-02-02T07:48:55.455Z,4.60
2023-02-02T07:51:23.348Z,6.22
2023-02-02T07:53:52.045Z,5.53
2023-02-02T07:56:21.718Z,5.45
2023-02-02T07:58:48.721Z,5.20
2023-02-02T08:01:16.582Z,4.18
2023-02-02T08:03:44.050Z,5.00
2023-02-02T08:06:14.567Z,5.82
2023-02-02T08:11:10.199Z,4.75
2023-02-02T08:13:36.997Z,3.60
2023-02-02T08:16:04.295Z,3.58
2023-02-02T08:18:31.293Z,3.10
2023-02-02T08:20:59.092Z,3.97
2023-02-02T08:23:26.153Z,4.38
2023-02-02T08:25:53.878Z,3.17
2023-02-02T08:28:20.725Z,3.08
2023-02-02T08:30:47.626Z,2.67
2023-02-02T08:33:14.395Z,2.65
2023-02-02T08:35:43.203Z,2.90
2023-02-02T08:38:10.328Z,2.53
2023-02-02T08:40:37.146Z,2.50
2023-02-02T08:43:04.410Z,2.53
2023-02-02T08:46:01.812Z,2.30
2023-02-02T08:48:19.906Z,4.25
2023-02-02T08:50:52.862Z,3.17
2023-02-02T08:53:19.638Z,4.10
2023-02-02T08:55:46.405Z,4.00
2023-02-02T08:58:13.339Z,4.43
2023-02-02T09:00:40.426Z,5.28
2023-02-02T09:03:07.156Z,6.10
2023-02-02T09:05:36.047Z,4.60
2023-02-02T09:08:02.840Z,4.60
2023-02-02T09:10:32.050Z,5.70
2023-02-02T09:12:59.104Z,7.70
2023-02-02T09:15:26.326Z,8.13
2023-02-02T09:17:53.243Z,8.63
2023-02-02T09:20:20.688Z,6.75
2023-02-02T09:22:48.539Z,9.30
2023-02-02T09:25:15.756Z,8.32
2023-02-02T09:27:42.908Z,6.15
2023-02-02T09:30:10.399Z,8.73
2023-02-02T09:32:37.167Z,8.90
2023-02-02T09:35:04.592Z,5.60
2023-02-02T09:37:34.000Z,5.10
2023-02-02T09:40:00.970Z,4.40
2023-02-02T09:42:33.121Z,4.47
2023-02-02T09:45:07.609Z,3.60
2023-02-02T09:47:53.421Z,3.40
2023-02-02T09:50:32.070Z,4.20
2023-02-02T09:53:11.499Z,4.50
2023-02-02T09:55:41.141Z,3.63
2023-02-02T09:58:17.603Z,3.70
2023-02-02T10:00:51.231Z,4.40
2023-02-02T10:03:24.641Z,5.00
2023-02-02T10:06:14.735Z,4.05
2023-02-02T10:08:45.873Z,4.10
2023-02-02T10:11:32.839Z,4.18
2023-02-02T10:14:10.864Z,4.32
2023-02-02T10:16:40.906Z,4.15
2023-02-02T10:19:13.685Z,4.40
2023-02-02T10:22:15.094Z,4.70
2023-02-02T10:24:41.890Z,4.20
2023-02-02T10:27:16.813Z,3.70
2023-02-02T10:30:03.706Z,3.65
2023-02-02T10:32:39.084Z,4.03
2023-02-02T10:35:50.783Z,4.70
2023-02-02T10:38:36.831Z,5.10
2023-02-02T10:41:30.233Z,5.30
2023-02-02T10:44:18.531Z,5.40
2023-02-02T10:47:09.567Z,4.93
2023-02-02T10:49:41.375Z,4.07
2023-02-02T10:52:13.773Z,4.97
2023-02-02T10:54:57.055Z,4.40
2023-02-02T10:57:57.842Z,3.75
2023-02-02T11:00:27.247Z,4.00
2023-02-02T11:02:54.482Z,3.72
2023-02-02T11:05:47.829Z,3.55
2023-02-02T11:08:38.343Z,6.03
2023-02-02T11:11:11.180Z,6.20
2023-02-02T11:13:51.229Z,5.20
2023-02-02T11:16:21.508Z,8.45
2023-02-02T11:18:49.235Z,5.40
2023-02-02T11:21:20.561Z,4.30
2023-02-02T11:23:56.329Z,4.80
2023-02-02T11:26:25.155Z,6.32
2023-02-02T11:28:54.723Z,4.47
2023-02-02T11:31:32.688Z,4.50
2023-02-02T11:34:28.695Z,4.40
2023-02-02T11:37:03.047Z,4.90
2023-02-02T11:39:29.852Z,6.30
2023-02-02T11:42:18.369Z,4.95
2023-02-02T11:44:52.497Z,5.25
2023-02-02T11:47:24.583Z,5.10
2023-02-02T11:49:52.388Z,5.03
2023-02-02T11:52:23.811Z,4.47
2023-02-02T11:57:22.289Z,4.53
2023-02-02T12:00:07.926Z,4.70
2023-02-02T12:02:34.842Z,4.10
2023-02-02T12:05:10.203Z,4.15
2023-02-02T12:07:37.581Z,4.15
2023-02-02T12:10:16.796Z,4.40
2023-02-02T12:12:55.615Z,4.07
2023-02-02T12:15:40.129Z,4.80
2023-02-02T12:18:25.383Z,3.78
2023-02-02T12:21:04.163Z,4.00
2023-02-02T12:23:47.619Z,3.80
2023-02-02T12:26:31.505Z,4.13
2023-02-02T12:29:30.592Z,4.65
2023-02-02T12:32:18.074Z,5.25
2023-02-02T12:34:56.714Z,5.30
2023-02-02T12:37:47.979Z,8.23
2023-02-02T12:40:34.613Z,5.45
2023-02-02T12:43:17.042Z,4.95
2023-02-02T12:45:56.393Z,4.43
2023-02-02T12:48:26.145Z,4.47
2023-02-02T12:51:09.782Z,4.75
2023-02-02T12:54:34.882Z,5.72
2023-02-02T12:57:29.939Z,5.30
2023-02-02T13:00:24.897Z,5.65
2023-02-02T13:03:32.752Z,5.45
2023-02-02T13:06:48.249Z,5.30
2023-02-02T13:09:27.404Z,5.13
2023-02-02T13:12:07.123Z,3.60
2023-02-02T13:14:33.857Z,4.18
2023-02-02T13:17:07.822Z,4.35
2023-02-02T13:19:46.451Z,5.63
2023-02-02T13:22:26.986Z,4.82
2023-02-02T13:25:00.016Z,5.15
2023-02-02T13:27:28.658Z,5.15
2023-02-02T13:30:10.971Z,4.60
2023-02-02T13:32:41.797Z,4.28
2023-02-02T13:35:24.414Z,4.00
2023-02-02T13:37:51.301Z,3.80
2023-02-02T13:40:28.348Z,3.67
2023-02-02T13:43:02.664Z,3.75
2023-02-02T13:45:47.576Z,3.97
2023-02-02T13:48:30.147Z,4.70
2023-02-02T13:51:02.602Z,3.85
2023-02-02T13:54:03.627Z,4.10
2023-02-02T13:56:36.250Z,3.88
2023-02-02T13:59:09.038Z,4.32
2023-02-02T14:01:36.375Z,4.60
2023-02-02T14:04:04.850Z,3.72
2023-02-02T14:06:53.943Z,4.13
2023-02-02T14:09:20.901Z,4.70
2023-02-02T14:11:57.316Z,4.05
2023-02-02T14:14:35.367Z,4.57
2023-02-02T14:17:28.731Z,3.85
2023-02-02T14:19:57.529Z,3.70
2023-02-02T14:22:40.636Z,3.60
2023-02-02T14:25:29.277Z,4.20
2023-02-02T14:28:14.904Z,3.30
2023-02-02T14:30:43.456Z,3.50
2023-02-02T14:33:22.577Z,4.28
2023-02-02T14:35:49.431Z,3.80
2023-02-02T14:38:49.041Z,3.60
2023-02-02T14:41:51.257Z,3.95
2023-02-02T14:44:17.961Z,3.80
2023-02-02T14:46:49.111Z,5.07
2023-02-02T14:49:26.443Z,5.85
2023-02-02T14:51:56.015Z,4.85
2023-02-02T14:54:27.264Z,4.60
2023-02-02T14:56:58.403Z,4.70
2023-02-02T14:59:31.079Z,5.40
2023-02-02T15:02:16.430Z,6.20
2023-02-02T15:04:45.149Z,7.63
2023-02-02T15:07:23.971Z,9.93
2023-02-02T15:09:58.177Z,9.75
2023-02-02T15:12:35.355Z,9.77
2023-02-02T15:15:25.352Z,11.38
2023-02-02T15:18:07.839Z,11.30
2023-02-02T15:20:45.911Z,9.52
2023-02-02T15:23:29.958Z,4.95
2023-02-02T15:26:00.978Z,5.15
2023-02-02T15:29:00.694Z,5.20
2023-02-02T15:31:46.920Z,6.00
2023-02-02T15:34:20.877Z,4.78
2023-02-02T15:36:51.506Z,5.35
2023-02-02T15:39:36.583Z,3.72
2023-02-02T15:42:31.215Z,3.60
2023-02-02T15:44:58.062Z,3.70
2023-02-02T15:47:40.626Z,3.60
2023-02-02T15:50:20.408Z,3.17
2023-02-02T15:52:50.177Z,3.10
2023-02-02T15:55:32.424Z,3.30
2023-02-02T15:58:00.155Z,4.13
2023-02-02T16:00:33.070Z,4.20
2023-02-02T16:03:19.066Z,3.08
2023-02-02T16:05:49.678Z,4.03
2023-02-02T16:08:35.502Z,3.50
2023-02-02T16:11:06.101Z,4.40
2023-02-02T16:13:33.644Z,4.40
2023-02-02T16:16:06.863Z,5.68
2023-02-02T16:18:35.518Z,4.68
2023-02-02T16:21:12.141Z,4.50
2023-02-02T16:23:39.458Z,3.42
2023-02-02T16:26:07.303Z,4.38
2023-02-02T16:28:34.730Z,4.82
2023-02-02T16:31:02.754Z,4.40
2023-02-02T16:33:31.509Z,3.50
2023-02-02T16:35:58.712Z,4.68
2023-02-02T16:38:37.346Z,3.30
2023-02-02T16:41:07.406Z,3.90
2023-02-02T16:43:36.213Z,6.03
2023-02-02T16:46:15.271Z,4.88
2023-02-02T16:48:45.425Z,6.20
2023-02-02T16:51:12.295Z,6.80
2023-02-02T16:53:39.270Z,3.60
2023-02-02T16:56:07.819Z,3.53
2023-02-02T16:58:40.781Z,3.10
2023-02-02T17:01:15.801Z,3.10
2023-02-02T17:03:55.195Z,2.83
2023-02-02T17:06:38.353Z,3.08
2023-02-02T17:09:33.220Z,6.50
2023-02-02T17:12:34.573Z,7.60
2023-02-02T17:15:35.629Z,7.32
2023-02-02T17:18:05.094Z,8.20
2023-02-02T17:20:35.043Z,9.65
2023-02-02T17:23:07.041Z,6.47
2023-02-02T17:25:41.909Z,7.85
2023-02-02T17:28:15.030Z,7.05
2023-02-02T17:30:43.369Z,5.60
2023-02-02T17:33:18.109Z,5.90
2023-02-02T17:35:55.634Z,5.18
2023-02-02T17:38:24.889Z,4.50
2023-02-02T17:40:51.879Z,5.10
2023-02-02T17:43:18.598Z,4.03
2023-02-02T17:45:45.607Z,3.78
2023-02-02T17:48:14.134Z,5.90
2023-02-02T17:50:42.390Z,6.63
2023-02-02T17:53:14.015Z,4.88
2023-02-02T17:55:42.513Z,3.85
2023-02-02T17:58:13.425Z,3.95
2023-02-02T18:00:41.850Z,5.05
2023-02-02T18:03:20.974Z,4.50
2023-02-02T18:05:50.301Z,3.10
2023-02-02T18:08:17.148Z,2.88
2023-02-02T18:10:43.973Z,2.75
2023-02-02T18:13:15.935Z,3.10
2023-02-02T18:15:44.007Z,2.90
2023-02-02T18:18:12.486Z,2.95
2023-02-02T18:20:46.165Z,3.72
2023-02-02T18:23:13.672Z,3.25
2023-02-02T18:25:40.481Z,2.60
2023-02-02T18:28:08.408Z,2.70
2023-02-02T18:30:38.179Z,2.90
2023-02-02T18:33:05.007Z,2.67
2023-02-02T18:35:31.703Z,2.40
2023-02-02T18:37:58.673Z,2.53
2023-02-02T18:40:25.491Z,2.83
2023-02-02T18:42:52.168Z,2.55
2023-02-02T18:45:19.034Z,2.40
2023-02-02T18:47:45.732Z,2.70
2023-02-02T18:50:12.540Z,2.30
2023-02-02T18:52:39.335Z,2.20
2023-02-02T18:55:06.438Z,1.80
2023-02-02T18:57:33.215Z,1.83
2023-02-02T19:00:00.233Z,1.80
2023-02-02T19:02:27.261Z,1.70
2023-02-02T19:05:13.633Z,1.70
2023-02-02T19:08:00.996Z,1.90
2023-02-02T19:10:28.276Z,1.58
2023-02-02T19:13:10.761Z,2.30
2023-02-02T19:15:39.429Z,1.90
2023-02-02T19:18:21.686Z,1.73
2023-02-02T19:20:49.673Z,1.50
2023-02-02T19:23:25.373Z,1.02
2023-02-02T19:25:54.964Z,1.50
2023-02-02T19:28:28.271Z,1.00
2023-02-02T19:30:58.054Z,1.40
2023-02-02T19:33:39.488Z,1.40
2023-02-02T19:36:14.699Z,1.30
2023-02-02T19:38:42.852Z,1.33
2023-02-02T19:41:14.983Z,1.48
2023-02-02T19:43:47.447Z,1.30
2023-02-02T19:46:17.453Z,1.30
2023-02-02T19:48:44.478Z,1.33
2023-02-02T19:51:50.969Z,1.60
2023-02-02T19:54:25.842Z,1.30
2023-02-02T19:56:58.428Z,1.20
2023-02-02T19:59:30.334Z,1.40
2023-02-02T20:01:58.445Z,1.40
2023-02-02T20:04:25.623Z,1.23
2023-02-02T20:06:59.417Z,1.20
2023-02-02T20:09:34.869Z,1.00
2023-02-02T20:12:18.146Z,1.20
2023-02-02T20:14:44.914Z,1.25
2023-02-02T20:17:25.571Z,1.42
2023-02-02T20:19:52.429Z,2.13
2023-02-02T20:22:29.114Z,1.40
2023-02-02T20:24:57.300Z,1.40
2023-02-02T20:27:27.898Z,1.50
2023-02-02T20:29:59.480Z,1.20
2023-02-02T20:32:39.378Z,1.20
2023-02-02T20:35:39.720Z,1.30
2023-02-02T20:38:34.792Z,1.30
2023-02-02T20:41:04.482Z,1.30
2023-02-02T20:43:31.394Z,1.30
2023-02-02T20:45:58.589Z,1.23
2023-02-02T20:48:25.728Z,1.20
2023-02-02T20:50:52.612Z,0.98
2023-02-02T20:53:20.614Z,1.10
2023-02-02T20:55:47.465Z,1.10
2023-02-02T20:58:14.577Z,1.00
2023-02-02T21:00:41.547Z,0.90
2023-02-02T21:03:08.686Z,0.90
2023-02-02T21:05:35.609Z,1.13
2023-02-02T21:08:02.655Z,1.80
2023-02-02T21:10:29.533Z,2.20
2023-02-02T21:12:56.586Z,2.92
2023-02-02T21:15:23.610Z,2.85
2023-02-02T21:17:50.487Z,1.77
2023-02-02T21:20:17.571Z,1.60
2023-02-02T21:22:44.406Z,1.10
2023-02-02T21:25:11.506Z,0.90
2023-02-02T21:27:41.309Z,1.00
2023-02-02T21:30:12.455Z,1.98
2023-02-02T21:32:41.630Z,1.10
2023-02-02T21:35:09.098Z,1.10
2023-02-02T21:37:39.453Z,1.00
2023-02-02T21:40:15.507Z,0.95
2023-02-02T21:42:48.779Z,1.23
2023-02-02T21:45:37.305Z,1.10
2023-02-02T21:48:20.547Z,1.10
2023-02-02T21:50:47.899Z,1.13
2023-02-02T21:53:14.597Z,1.20
2023-02-02T21:55:41.561Z,1.30
2023-02-02T21:58:38.473Z,1.10
2023-02-02T22:01:29.293Z,1.10
2023-02-02T22:03:56.180Z,1.10
2023-02-02T22:06:28.016Z,1.30
2023-02-02T22:09:01.739Z,1.10
2023-02-02T22:11:53.144Z,1.30
2023-02-02T22:14:46.440Z,1.38
2023-02-02T22:17:25.151Z,1.30
2023-02-02T22:19:58.445Z,1.20
2023-02-02T22:22:29.424Z,1.20
2023-02-02T22:25:00.367Z,1.40
2023-02-02T22:27:39.922Z,1.38
2023-02-02T22:30:25.683Z,1.33
2023-02-02T22:32:53.894Z,1.30
2023-02-02T22:35:39.685Z,1.40
2023-02-02T22:38:06.930Z,1.20
2023-02-02T22:40:34.456Z,1.30
2023-02-02T22:45:32.628Z,1.40
2023-02-02T22:47:59.760Z,1.30
2023-02-02T22:50:29.262Z,1.38
2023-02-02T22:52:56.391Z,1.30
2023-02-02T22:55:24.517Z,1.50
2023-02-02T22:57:51.345Z,1.30
2023-02-02T23:00:21.316Z,1.30
2023-02-02T23:02:48.456Z,1.55
2023-02-02T23:05:16.894Z,1.50
2023-02-02T23:07:46.626Z,1.42
2023-02-02T23:10:19.367Z,1.50
2023-02-02T23:12:46.983Z,1.30
2023-02-02T23:15:15.287Z,1.48
2023-02-02T23:17:42.570Z,1.50
2023-02-02T23:20:13.069Z,1.30
2023-02-02T23:25:07.292Z,1.50
2023-02-02T23:27:34.466Z,1.80
2023-02-02T23:30:01.358Z,1.70
2023-02-02T23:32:28.038Z,1.50
2023-02-02T23:34:54.778Z,1.35
2023-02-02T23:37:21.560Z,1.50
2023-02-02T23:39:48.296Z,1.30
2023-02-02T23:42:15.185Z,1.40
2023-02-02T23:44:41.995Z,1.40
2023-02-02T23:47:09.438Z,1.30
2023-02-02T23:49:36.553Z,1.30
2023-02-02T23:52:03.657Z,1.40
2023-02-02T23:54:31.414Z,1.30
2023-02-02T23:56:58.809Z,1.30
2023-02-02T23:59:25.845Z,1.40
